South Holston Observed Data For Previous 48 Hours

Caption
Day and Hour Reservoir Elevation (behind dam)* Tailwater Elevation (below dam)* Average Hourly Discharge*
3/25/2017 2 AM EDT 1,716.58 1,485.39 10
3/25/2017 3 AM EDT 1,716.58 1,485.21 10
3/25/2017 4 AM EDT 1,716.60 1,485.22 10
3/25/2017 5 AM EDT 1,716.60 1,486.68 1,283
3/25/2017 6 AM EDT 1,716.60 1,486.05 10
3/25/2017 7 AM EDT 1,716.60 1,485.83 10
3/25/2017 8 AM EDT 1,716.62 1,485.62 10
3/25/2017 9 AM EDT 1,716.63 1,485.41 10
3/25/2017 10 AM EDT 1,716.62 1,485.23 10
3/25/2017 11 AM EDT 1,716.64 1,485.07 10
3/25/2017 12 PM EDT 1,716.66 1,484.96 10
3/25/2017 1 PM EDT 1,716.66 1,484.90 10
3/25/2017 2 PM EDT 1,716.67 1,484.86 10
3/25/2017 3 PM EDT 1,716.69 1,484.84 10
3/25/2017 4 PM EDT 1,716.69 1,484.98 10
3/25/2017 5 PM EDT 1,716.69 1,486.74 1,277
3/25/2017 6 PM EDT 1,716.69 1,486.03 10
3/25/2017 7 PM EDT 1,716.70 1,485.82 10
3/25/2017 8 PM EDT 1,716.71 1,485.60 10
3/25/2017 9 PM EDT 1,716.72 1,485.40 10
3/25/2017 10 PM EDT 1,716.72 1,485.21 10
3/25/2017 11 PM EDT 1,716.74 1,485.05 10
3/26/2017 12 AM EDT 1,716.75 1,484.95 10
3/26/2017 1 AM EDT 1,716.75 1,484.89 10
3/26/2017 2 AM EDT 1,716.76 1,484.85 10
3/26/2017 3 AM EDT 1,716.78 1,484.84 10
3/26/2017 4 AM EDT 1,716.78 1,485.00 10
3/26/2017 5 AM EDT 1,716.77 1,486.71 1,285
3/26/2017 6 AM EDT 1,716.77 1,486.04 10
3/26/2017 7 AM EDT 1,716.78 1,485.81 10
3/26/2017 8 AM EDT 1,716.80 1,485.59 10
3/26/2017 9 AM EDT 1,716.80 1,485.39 10
3/26/2017 10 AM EDT 1,716.82 1,485.20 10
3/26/2017 11 AM EDT 1,716.83 1,485.05 10
3/26/2017 12 PM EDT 1,716.85 1,484.95 10
3/26/2017 1 PM EDT 1,716.86 1,484.89 10
3/26/2017 2 PM EDT 1,716.86 1,484.85 10
3/26/2017 3 PM EDT 1,716.87 1,484.84 10
3/26/2017 4 PM EDT 1,716.88 1,485.02 10
3/26/2017 5 PM EDT 1,716.87 1,486.66 1,280
3/26/2017 6 PM EDT 1,716.88 1,486.04 10
3/26/2017 7 PM EDT 1,716.89 1,485.81 10
3/26/2017 8 PM EDT 1,716.90 1,485.59 10
3/26/2017 9 PM EDT 1,716.90 1,485.38 10
3/26/2017 10 PM EDT 1,716.91 1,485.19 10
3/26/2017 11 PM EDT 1,716.92 1,485.04 10
3/27/2017 12 AM EDT 1,716.93 1,484.95 10
3/27/2017 1 AM EDT 1,716.94 1,484.89 10
3/27/2017 2 AM EDT 1,716.95 1,484.85 10
3/27/2017 3 AM EDT 1,716.96 1,484.84 10
3/27/2017 4 AM EDT 1,716.97 1,485.02 10
3/27/2017 5 AM EDT 1,716.97 1,486.78 1,279
3/27/2017 6 AM EDT 1,716.96 1,486.05 10
3/27/2017 7 AM EDT 1,716.97 1,485.84 10
3/27/2017 8 AM EDT 1,716.98 1,485.63 10
3/27/2017 9 AM EDT 1,716.99 1,485.43 10
3/27/2017 10 AM EDT 1,717.00 1,485.25 10
3/27/2017 11 AM EDT 1,717.00 1,485.09 10
3/27/2017 12 PM EDT 1,717.02 1,484.99 10
3/27/2017 1 PM EDT 1,717.03 1,484.91 10
3/27/2017 2 PM EDT 1,717.04 1,484.87 10

Elevations are in feet above sea level. Discharges are in cubic feet per second and are reported at the end of the hour.